Station info - map view · info · telemetry · weather · raw · status · beacons · messages · bulletins · browse · moving · my account
Callsign, ship name or locator: Clear       
It is possible to search using wildcards (*?) after a prefix. Example: OH*
APRS station KF8IU-9 - show graphs
Map loading...
Comment: 145.390MHz C100 -060TM-D710GA
Mic-E message: Off duty
Location: 42°44.94' N 84°24.68' W - locator EN72TR09PS - show map - static map
0.5 miles West bearing 285° from Haslett, Ingham County, Michigan, United States [?]
2.0 miles Northeast bearing 24° from Okemos, Ingham County, Michigan, United States
75.2 miles Northwest bearing 293° from Detroit, Wayne County, Michigan, United States
86.8 miles Northwest bearing 330° from Toledo, Lucas County, Ohio, United States
Last position: 2017-03-25 18:26:39 EDT (10h50m ago)
2017-03-25 18:26:39 EDT local time at Haslett, United States [?]
Altitude: 850 ft
Course: 183°
Speed: 10 MPH
Device: Kenwood: TM-D710 (rig)
Last path: KF8IU-9>TRTT9T via WIDE1-1,WIDE2-1,qAR,CHLSEA (good)
Positions stored: 16523
Packet rate: 61 seconds between packets on average during 1332 seconds.
Other SSIDs: KF8IU KF8IU-15
Stations near current position of KF8IU-9 - show more
callsign distance last heard - EDT      callsign distance last heard - EDT
WA8LMF-SG0.9 miles 122°2017-03-26 05:15:16 WA8LMF-600.9 miles 123°2017-03-26 05:09:25
WA8LMF0.9 miles 122°2017-03-26 05:01:33 WA8LMF-140.9 miles 122°2017-03-26 05:10:25
WA8LMF-130.9 miles 122°2017-03-26 05:06:10 CW97421.6 miles 5°2017-03-26 05:13:41
EW78871.8 miles 301°2017-03-26 05:16:51 KF6TMF-22.4 miles 268°2017-03-25 17:27:41
K8CPT2.7 miles 277°2017-03-17 22:34:58 EW92963.2 miles 222°2017-03-26 05:08:29
WA8LMF-23.6 miles 59°2017-03-09 20:43:26 W9WSW4.4 miles 267°2017-03-26 05:17:04
W9WSW-94.8 miles 245°2017-03-24 12:58:43 EW80624.9 miles 195°2017-03-26 05:14:38
EW73085.6 miles 233°2017-03-26 05:07:33 LANSNG5.8 miles 274°2017-03-26 05:00:28
KE8CRV-76.5 miles 228°2017-03-18 10:20:07 KD8OIB6.5 miles 254°2017-03-26 05:11:13
KC8KED-17.5 miles 241°2017-02-24 19:18:16 W8AB8.5 miles 221°2017-03-25 22:12:38
Stations which heard KF8IU-9 directly on radio –
callsign pkts first heard - EDT last heard longest (tx => rx) longest at - EDT
WB9TLH-11 7 2017-03-03 23:10:00 2017-03-05 15:18:19 EM69SJ > EM69QB 25.1 miles 203° 2017-03-03 23:10:00
KB9PFM-10 3 2017-03-05 16:30:02 2017-03-05 16:51:16 EN70CA > EN60WF 25.2 miles 305° 2017-03-05 16:51:16
N8TJG-10 47 2017-03-03 18:44:52 2017-03-05 19:37:08 EN71MS > EN72MG 36.3 miles 4° 2017-03-03 19:33:14
N9UMJ-10 7 2017-03-03 23:21:34 2017-03-05 15:15:27 EM69RG > EM68QR 36.7 miles 191° 2017-03-03 23:21:34
N9AMN-2 37 2017-03-03 22:27:06 2017-03-05 16:10:27 EM69TK > EM69WR 23.0 miles 33° 2017-03-05 15:41:19
WA8LMF 10 2017-03-10 16:45:04 2017-03-21 06:45:14 EN72SR > EN72TR 3.5 miles 71° 2017-03-20 07:21:24
N9AMN-3 12 2017-03-03 22:09:33 2017-03-05 16:55:09 EN70CA > EM69XV 17.0 miles 242° 2017-03-05 16:55:09
W8DF-5 27 2017-03-03 18:46:51 2017-03-05 19:31:07 EN72OM > EN72KG 24.5 miles 226° 2017-03-03 18:46:51
W9ICE-10 116 2017-03-03 21:50:26 2017-03-05 17:06:02 EM69RE > EM69VV 53.1 miles 21° 2017-03-03 23:30:30
HOLLY 1 2017-03-03 18:11:00 2017-03-03 18:11:00 EN72TS > EN82FT 43.0 miles 85° 2017-03-03 18:11:00
LANSNG 332 2017-03-03 18:20:35 2017-03-25 18:19:47 EN72ON > EN72RS 19.9 miles 49° 2017-03-05 19:39:47
BANCFT 17 2017-03-03 18:06:03 2017-03-18 11:20:53 EN72RS > EN72WU 22.2 miles 71° 2017-03-10 12:32:27
CHLSEA 115 2017-03-03 18:06:33 2017-03-25 18:26:39 EN72PS > EN72XI 41.3 miles 132° 2017-03-14 17:56:09
N8IYX-4 4 2017-03-03 19:37:13 2017-03-05 19:02:02 EN71LQ > EN71EW 36.5 miles 297° 2017-03-03 19:37:48
N9QCL-9 3 2017-03-03 19:42:40 2017-03-03 19:56:03 EN71LM > EN71JG 18.7 miles 204° 2017-03-03 19:56:03
JAMTWP 3 2017-03-21 06:43:55 2017-03-21 06:46:11 EN72SS > EN73XJ 47.0 miles 25° 2017-03-21 06:46:11
WB9TLH-12 12 2017-03-03 23:23:32 2017-03-05 15:27:57 EM69RH > EM69RE 8.9 miles 175° 2017-03-05 15:27:57
KC9MWQ-1 19 2017-03-03 21:16:07 2017-03-05 17:37:13 EN70FD > EN70EO 31.8 miles 352° 2017-03-03 21:52:23
KC9UOQ-2 59 2017-03-03 19:49:09 2017-03-05 18:34:31 EN71LN > EN71JB 36.8 miles 193° 2017-03-03 19:49:09
N9WNH-3 9 2017-03-03 20:26:32 2017-03-05 18:28:32 EN70HU > EN71HG 30.0 miles 356° 2017-03-03 21:05:33
WA8LMF-14 338 2017-03-03 18:09:31 2017-03-25 18:26:07 EN72PQ > EN72TR 15.2 miles 72° 2017-03-03 18:36:05
WE9MA-3 8 2017-03-03 21:55:33 2017-03-05 17:06:37 EN70CA > EM79HW 21.8 miles 104° 2017-03-03 22:06:28
WB9CNE 40 2017-03-03 21:54:26 2017-03-05 16:58:12 EN70FC > EM79CT 24.6 miles 214° 2017-03-03 21:54:26
KE9YM-3 1 2017-03-03 23:05:00 2017-03-03 23:05:00 EM69TK > EM69UE 19.4 miles 169° 2017-03-03 23:05:00
NA9VY-10 17 2017-03-03 22:28:05 2017-03-05 16:42:53 EM69VN > EM79BQ 21.6 miles 62° 2017-03-03 22:54:43
W9SMJ-1 32 2017-03-03 21:18:07 2017-03-05 17:27:45 EN70FC > EN60XJ 34.3 miles 311° 2017-03-03 21:55:25
KA9DTZ-1 29 2017-03-03 20:56:43 2017-03-05 17:54:13 EN70GQ > EN70GV 14.2 miles 358° 2017-03-05 17:35:13
KB8IUO-10 2 2017-03-03 20:31:13 2017-03-05 18:35:31 EN71LL > EN71PI 18.6 miles 120° 2017-03-05 18:35:31

Only position packets which were originated by the station are shown here. The range statistics show some extra long hops, because some digipeaters do not correctly add themselves to the digipeater path. Please check the raw packets.
About this site
This page shows real-time information collected from the Automatic Position Reporting System Internet network (APRS-IS). APRS is used by amateur (ham) radio operators to transmit real-time position information, weather data, telemetry and messages over the radio. A vehicle equipped with a GPS receiver, a VHF transmitter or HF transceiver and a small computer device called a tracker transmits it's location, speed and course in a small data packet, which is then received by a nearby iGate receiving site which forwards the packet on the Internet. Systems connected to the Internet can send information on the APRS-IS without a radio transmitter, or collect and display information transmitted anywhere in the world.
FAQ · Blog · Discussion group · Linking to aprs.fi · AIS sites · Service status · Database statistics · Advertising on aprs.fi · Technical details · API · Change log · Planned changes · Credits and thanks · Terms Of Service · iPhone/iPad APRS